createdAt,value
2023-05-13T00:00:17.887Z,5.50
2023-05-13T00:00:38.931Z,5.60
2023-05-13T00:01:00.007Z,5.50
2023-05-13T00:01:21.035Z,5.50
2023-05-13T00:01:42.104Z,5.80
2023-05-13T00:02:03.169Z,5.90
2023-05-13T00:02:24.282Z,6.00
2023-05-13T00:02:45.649Z,6.10
2023-05-13T00:03:06.977Z,6.00
2023-05-13T00:03:28.198Z,5.70
2023-05-13T00:03:49.378Z,5.60
2023-05-13T00:04:10.480Z,6.30
2023-05-13T00:04:31.532Z,6.20
2023-05-13T00:04:52.609Z,6.40
2023-05-13T00:05:13.669Z,5.80
2023-05-13T00:05:34.736Z,5.50
2023-05-13T00:05:55.821Z,6.10
2023-05-13T00:06:16.974Z,5.20
2023-05-13T00:06:38.253Z,5.30
2023-05-13T00:06:59.431Z,5.90
2023-05-13T00:07:20.510Z,5.40
2023-05-13T00:07:41.668Z,5.90
2023-05-13T00:08:03.003Z,6.40
2023-05-13T00:08:24.262Z,6.30
2023-05-13T00:08:45.313Z,6.10
2023-05-13T00:09:06.368Z,6.30
2023-05-13T00:09:27.430Z,6.30
2023-05-13T00:09:48.512Z,5.70
2023-05-13T00:10:09.594Z,5.40
2023-05-13T00:10:30.612Z,5.80
2023-05-13T00:10:51.680Z,5.90
2023-05-13T00:11:12.749Z,6.10
2023-05-13T00:11:33.797Z,6.10
2023-05-13T00:11:54.849Z,5.80
2023-05-13T00:12:15.940Z,5.60
2023-05-13T00:12:36.991Z,5.80
2023-05-13T00:12:58.054Z,5.90
2023-05-13T00:13:19.351Z,6.10
2023-05-13T00:13:40.437Z,6.10
2023-05-13T00:14:01.505Z,5.90
2023-05-13T00:14:22.579Z,5.90
2023-05-13T00:14:43.635Z,5.60
2023-05-13T00:15:04.679Z,5.60
2023-05-13T00:15:25.797Z,5.60
2023-05-13T00:15:46.813Z,6.00
2023-05-13T00:16:07.945Z,5.90
2023-05-13T00:16:29.025Z,6.20
2023-05-13T00:16:50.097Z,6.10
2023-05-13T00:17:11.163Z,5.90
2023-05-13T00:17:32.248Z,5.60
2023-05-13T00:17:53.335Z,5.40
2023-05-13T00:18:14.366Z,6.00
2023-05-13T00:18:35.470Z,5.50
2023-05-13T00:18:56.818Z,5.70
2023-05-13T00:19:17.844Z,5.70
2023-05-13T00:19:38.895Z,5.60
2023-05-13T00:19:59.967Z,5.60
2023-05-13T00:20:21.331Z,5.50
2023-05-13T00:20:42.575Z,5.80
2023-05-13T00:21:03.605Z,6.10
2023-05-13T00:21:24.666Z,5.60
2023-05-13T00:21:45.738Z,5.60
2023-05-13T00:22:06.805Z,5.50
2023-05-13T00:22:27.857Z,5.60
2023-05-13T00:22:48.911Z,5.40
2023-05-13T00:23:10.038Z,5.30
2023-05-13T00:23:31.060Z,5.50
2023-05-13T00:23:52.153Z,5.80
2023-05-13T00:24:13.250Z,5.70
2023-05-13T00:24:34.300Z,5.60
2023-05-13T00:24:55.354Z,5.30
2023-05-13T00:25:16.418Z,5.60
2023-05-13T00:25:37.475Z,5.50
2023-05-13T00:25:58.536Z,5.40
2023-05-13T00:26:19.590Z,5.90
2023-05-13T00:26:40.654Z,5.80
2023-05-13T00:27:01.713Z,5.30
2023-05-13T00:27:22.800Z,5.80
2023-05-13T00:27:43.856Z,5.60
2023-05-13T00:28:04.917Z,5.60
2023-05-13T00:28:25.963Z,5.20
2023-05-13T00:28:47.034Z,5.30
2023-05-13T00:29:08.131Z,5.40
2023-05-13T00:29:29.395Z,5.30
2023-05-13T00:29:50.463Z,5.40
2023-05-13T00:30:11.509Z,5.40
2023-05-13T00:30:32.572Z,5.10
2023-05-13T00:30:53.631Z,5.30
2023-05-13T00:31:14.714Z,5.30
2023-05-13T00:31:35.803Z,5.30
2023-05-13T00:31:57.039Z,5.30
2023-05-13T00:32:18.164Z,5.20
2023-05-13T00:32:39.221Z,5.50
2023-05-13T00:33:00.346Z,5.50
2023-05-13T00:33:21.461Z,5.00
2023-05-13T00:33:42.526Z,5.30
2023-05-13T00:34:03.587Z,5.60
2023-05-13T00:34:24.860Z,5.50
2023-05-13T00:34:46.128Z,5.30
2023-05-13T00:35:07.205Z,4.90
2023-05-13T00:35:28.251Z,5.30
2023-05-13T00:35:49.322Z,5.00
2023-05-13T00:36:10.375Z,5.20
2023-05-13T00:36:31.433Z,5.10
2023-05-13T00:36:52.505Z,5.00
2023-05-13T00:37:13.556Z,5.20
2023-05-13T00:37:34.622Z,5.50
2023-05-13T00:37:55.689Z,5.20
2023-05-13T00:38:16.765Z,5.60
2023-05-13T00:38:37.815Z,5.50
2023-05-13T00:38:58.871Z,5.20
2023-05-13T00:39:19.927Z,5.00
2023-05-13T00:39:41.187Z,4.90
2023-05-13T00:40:02.335Z,4.80
2023-05-13T00:40:24.359Z,5.20
2023-05-13T00:40:45.539Z,5.70
2023-05-13T00:41:06.611Z,5.70
2023-05-13T00:41:27.638Z,5.30
2023-05-13T00:41:48.697Z,4.90
2023-05-13T00:42:09.755Z,5.10
2023-05-13T00:42:30.814Z,5.30
2023-05-13T00:42:51.869Z,5.00
2023-05-13T00:43:12.920Z,5.00
2023-05-13T00:43:34.001Z,5.40
2023-05-13T00:43:55.049Z,5.50
2023-05-13T00:44:16.103Z,5.10
2023-05-13T00:44:37.158Z,5.00
2023-05-13T00:44:58.441Z,5.00
2023-05-13T00:45:19.712Z,5.10
2023-05-13T00:45:40.808Z,5.30
2023-05-13T00:46:01.963Z,5.00
2023-05-13T00:46:23.142Z,4.90
2023-05-13T00:46:44.206Z,5.10
2023-05-13T00:47:05.263Z,5.50
2023-05-13T00:47:26.346Z,5.20
2023-05-13T00:47:47.412Z,4.90
2023-05-13T00:48:08.451Z,5.20
2023-05-13T00:48:29.559Z,5.40
2023-05-13T00:48:50.590Z,5.00
2023-05-13T00:49:11.647Z,5.20
2023-05-13T00:49:32.699Z,5.20
2023-05-13T00:49:53.758Z,5.20
2023-05-13T00:50:14.871Z,5.20
2023-05-13T00:50:35.959Z,5.50
2023-05-13T00:50:57.047Z,5.50
2023-05-13T00:51:18.078Z,5.10
2023-05-13T00:51:39.168Z,5.10
2023-05-13T00:52:00.200Z,5.00
2023-05-13T00:52:21.268Z,5.10
2023-05-13T00:52:42.372Z,5.00
2023-05-13T00:53:03.408Z,5.20
2023-05-13T00:53:24.472Z,5.10
2023-05-13T00:53:45.547Z,4.80
2023-05-13T00:54:06.593Z,5.00
2023-05-13T00:54:27.658Z,5.20
2023-05-13T00:54:48.724Z,5.40
2023-05-13T00:55:09.774Z,5.20
2023-05-13T00:55:31.054Z,5.30
2023-05-13T00:55:52.305Z,4.90
2023-05-13T00:56:13.369Z,5.20
2023-05-13T00:56:34.422Z,4.90
2023-05-13T00:56:55.478Z,5.10
2023-05-13T00:57:16.550Z,5.50
2023-05-13T00:57:37.620Z,5.70
2023-05-13T00:57:58.662Z,5.10
2023-05-13T00:58:19.720Z,5.10
2023-05-13T00:58:40.782Z,5.10
2023-05-13T00:59:01.841Z,5.00
2023-05-13T00:59:22.902Z,5.30
2023-05-13T00:59:43.968Z,5.40
2023-05-13T01:00:05.048Z,5.30
2023-05-13T01:00:26.079Z,5.30
2023-05-13T01:00:47.411Z,5.70
2023-05-13T01:01:08.550Z,6.10
2023-05-13T01:01:29.690Z,5.20
2023-05-13T01:01:50.762Z,5.00
2023-05-13T01:02:11.902Z,4.90
2023-05-13T01:02:33.041Z,5.10
2023-05-13T01:02:54.149Z,5.40
2023-05-13T01:03:15.331Z,4.90
2023-05-13T01:03:36.579Z,5.00
2023-05-13T01:03:57.615Z,5.40
2023-05-13T01:04:18.677Z,5.30
2023-05-13T01:04:39.749Z,5.20
2023-05-13T01:05:00.819Z,5.40
2023-05-13T01:05:21.879Z,5.30
2023-05-13T01:05:42.936Z,5.20
2023-05-13T01:06:04.041Z,5.10
2023-05-13T01:06:25.131Z,5.20
2023-05-13T01:06:46.191Z,5.30
2023-05-13T01:07:07.245Z,5.30
2023-05-13T01:07:28.299Z,5.20
2023-05-13T01:07:49.372Z,5.30
2023-05-13T01:08:10.436Z,5.30
2023-05-13T01:08:31.488Z,5.60
2023-05-13T01:08:52.554Z,5.30
2023-05-13T01:09:13.618Z,5.10
2023-05-13T01:09:34.683Z,5.10
2023-05-13T01:09:55.723Z,4.90
2023-05-13T01:10:16.785Z,5.10
2023-05-13T01:10:37.836Z,4.90
2023-05-13T01:10:58.892Z,5.20
2023-05-13T01:11:19.979Z,4.90
2023-05-13T01:11:41.083Z,5.00
2023-05-13T01:12:02.140Z,4.90
2023-05-13T01:12:23.215Z,5.10
2023-05-13T01:12:44.270Z,5.00
2023-05-13T01:13:05.345Z,5.20
2023-05-13T01:13:26.384Z,5.80
2023-05-13T01:13:47.447Z,5.60
2023-05-13T01:14:08.500Z,4.90
2023-05-13T01:14:29.572Z,4.70
2023-05-13T01:14:50.622Z,4.90
2023-05-13T01:15:11.683Z,4.90
2023-05-13T01:15:32.750Z,5.10
2023-05-13T01:15:53.813Z,5.30
2023-05-13T01:16:14.873Z,5.20
2023-05-13T01:16:36.051Z,4.80
2023-05-13T01:16:57.328Z,4.70
2023-05-13T01:17:18.394Z,4.90
2023-05-13T01:17:39.483Z,5.30
2023-05-13T01:18:00.524Z,5.40
2023-05-13T01:18:21.719Z,5.20
2023-05-13T01:18:42.840Z,5.20
2023-05-13T01:19:03.876Z,5.20
2023-05-13T01:19:25.012Z,5.00
2023-05-13T01:19:46.065Z,5.20
2023-05-13T01:20:07.130Z,5.60
2023-05-13T01:20:28.180Z,5.10
2023-05-13T01:20:49.234Z,5.10
2023-05-13T01:21:10.299Z,5.00
2023-05-13T01:21:31.361Z,4.80
2023-05-13T01:21:52.458Z,4.90
2023-05-13T01:22:13.543Z,5.10
2023-05-13T01:22:34.605Z,4.90
2023-05-13T01:22:55.665Z,5.10
2023-05-13T01:23:16.736Z,5.20
2023-05-13T01:23:37.783Z,5.00
2023-05-13T01:23:58.886Z,5.20
2023-05-13T01:24:19.986Z,5.20
2023-05-13T01:24:41.104Z,5.40
2023-05-13T01:25:02.177Z,5.30
2023-05-13T01:25:23.225Z,5.10
2023-05-13T01:25:44.273Z,5.00
2023-05-13T01:26:05.350Z,5.50
2023-05-13T01:26:26.413Z,5.10
2023-05-13T01:26:47.478Z,4.90
2023-05-13T01:27:08.747Z,5.10
2023-05-13T01:27:29.849Z,5.00
2023-05-13T01:27:50.888Z,5.30
2023-05-13T01:28:11.966Z,5.00
2023-05-13T01:28:33.038Z,4.90
2023-05-13T01:28:54.102Z,5.20
2023-05-13T01:29:15.149Z,5.30
2023-05-13T01:29:36.219Z,5.50
2023-05-13T01:29:57.274Z,5.30
2023-05-13T01:30:18.351Z,4.90
2023-05-13T01:30:39.402Z,4.90
2023-05-13T01:31:00.474Z,5.00
2023-05-13T01:31:21.563Z,5.00
2023-05-13T01:31:42.738Z,5.30
2023-05-13T01:32:03.798Z,5.50
2023-05-13T01:32:25.121Z,5.50
2023-05-13T01:32:46.282Z,5.00
2023-05-13T01:33:07.390Z,5.50
2023-05-13T01:33:28.426Z,5.20
2023-05-13T01:33:49.482Z,5.30
2023-05-13T01:34:10.548Z,5.20
2023-05-13T01:34:31.610Z,5.60
2023-05-13T01:34:52.660Z,4.90
2023-05-13T01:35:13.736Z,5.00
2023-05-13T01:35:34.802Z,5.00
2023-05-13T01:35:55.849Z,5.20
2023-05-13T01:36:16.907Z,5.00
2023-05-13T01:36:37.979Z,5.00
2023-05-13T01:36:59.026Z,5.30
2023-05-13T01:37:20.100Z,5.40
2023-05-13T01:37:41.182Z,5.50
2023-05-13T01:38:02.309Z,5.20
2023-05-13T01:38:23.372Z,5.10
2023-05-13T01:38:44.430Z,5.00
2023-05-13T01:39:05.489Z,5.00
2023-05-13T01:39:26.540Z,4.80
2023-05-13T01:39:47.608Z,5.00
2023-05-13T01:40:20.421Z,4.90
2023-05-13T01:40:35.966Z,5.40
2023-05-13T01:40:57.085Z,5.30
2023-05-13T01:41:18.131Z,5.10
2023-05-13T01:41:39.189Z,5.20
2023-05-13T01:42:00.290Z,4.90
2023-05-13T01:42:21.309Z,5.50
2023-05-13T01:42:42.423Z,5.60
2023-05-13T01:43:03.664Z,5.50
2023-05-13T01:43:24.726Z,5.50
2023-05-13T01:43:45.785Z,5.40
2023-05-13T01:44:06.848Z,5.10
2023-05-13T01:44:27.934Z,5.20
2023-05-13T01:44:48.997Z,5.10
2023-05-13T01:45:10.021Z,5.10
2023-05-13T01:45:31.080Z,5.20
2023-05-13T01:45:52.186Z,5.20
2023-05-13T01:46:13.311Z,5.70
2023-05-13T01:46:34.458Z,5.60
2023-05-13T01:46:55.582Z,5.20
2023-05-13T01:47:16.644Z,4.90
2023-05-13T01:47:37.719Z,5.30
2023-05-13T01:47:59.028Z,5.20
2023-05-13T01:48:20.276Z,5.00
2023-05-13T01:48:41.391Z,4.80
2023-05-13T01:49:02.439Z,5.00
2023-05-13T01:49:23.497Z,5.30
2023-05-13T01:49:44.555Z,5.10
2023-05-13T01:50:05.618Z,5.20
2023-05-13T01:50:26.662Z,5.50
2023-05-13T01:50:47.728Z,4.90
2023-05-13T01:51:08.776Z,5.10
2023-05-13T01:51:29.838Z,5.40
2023-05-13T01:51:50.891Z,5.00
2023-05-13T01:52:11.973Z,5.10
2023-05-13T01:52:33.015Z,5.40
2023-05-13T01:52:54.078Z,5.20
2023-05-13T01:53:15.189Z,5.20
2023-05-13T01:53:36.453Z,5.10
2023-05-13T01:53:57.528Z,5.20
2023-05-13T01:54:18.575Z,5.40
2023-05-13T01:54:39.639Z,5.60
2023-05-13T01:55:00.712Z,5.10
2023-05-13T01:55:21.797Z,5.20
2023-05-13T01:55:42.845Z,5.20
2023-05-13T01:56:03.899Z,5.30
2023-05-13T01:56:24.963Z,5.50
2023-05-13T01:56:46.020Z,5.00
2023-05-13T01:57:07.095Z,5.30
2023-05-13T01:57:28.135Z,5.30
2023-05-13T01:57:49.206Z,5.20
2023-05-13T01:58:10.248Z,5.20
2023-05-13T01:58:31.507Z,5.10
2023-05-13T01:58:52.592Z,5.30
2023-05-13T01:59:13.654Z,5.60
2023-05-13T01:59:34.711Z,5.40
2023-05-13T01:59:55.761Z,5.40
2023-05-13T02:00:16.831Z,5.30
2023-05-13T02:00:37.900Z,5.30
2023-05-13T02:00:58.949Z,5.40
2023-05-13T02:01:22.441Z,5.80
2023-05-13T02:01:43.845Z,5.60
2023-05-13T02:02:04.953Z,5.40
2023-05-13T02:02:26.023Z,5.80
2023-05-13T02:02:47.266Z,5.40
2023-05-13T02:03:08.448Z,5.40
2023-05-13T02:03:29.567Z,5.80
2023-05-13T02:03:50.797Z,5.60
2023-05-13T02:04:11.897Z,5.20
2023-05-13T02:04:32.963Z,5.40
2023-05-13T02:04:54.030Z,5.20
2023-05-13T02:05:15.096Z,5.60
2023-05-13T02:05:36.152Z,5.60
2023-05-13T02:05:57.199Z,5.40
2023-05-13T02:06:18.264Z,5.60
2023-05-13T02:06:39.346Z,5.50
2023-05-13T02:07:00.410Z,5.30
2023-05-13T02:07:21.452Z,5.20
2023-05-13T02:07:42.519Z,5.60
2023-05-13T02:08:03.605Z,5.40
2023-05-13T02:08:24.653Z,5.30
2023-05-13T02:08:45.702Z,5.40
2023-05-13T02:09:06.990Z,5.60
2023-05-13T02:09:28.085Z,5.40
2023-05-13T02:09:49.144Z,5.40
2023-05-13T02:10:10.203Z,5.80
2023-05-13T02:10:31.261Z,6.00
2023-05-13T02:10:52.315Z,5.80
2023-05-13T02:11:13.368Z,5.00
2023-05-13T02:11:34.438Z,5.40
2023-05-13T02:11:55.542Z,5.70
2023-05-13T02:12:16.594Z,5.40
2023-05-13T02:12:37.660Z,5.20
2023-05-13T02:12:58.731Z,5.30
2023-05-13T02:13:19.773Z,5.60
2023-05-13T02:13:40.842Z,5.20
2023-05-13T02:14:01.912Z,5.40
2023-05-13T02:14:23.181Z,5.20
2023-05-13T02:14:44.292Z,5.30
2023-05-13T02:15:05.369Z,5.50
2023-05-13T02:15:26.404Z,5.40
2023-05-13T02:15:47.466Z,5.50
2023-05-13T02:16:08.561Z,5.70
2023-05-13T02:16:29.630Z,5.50
2023-05-13T02:16:50.865Z,5.50
2023-05-13T02:17:12.028Z,5.40
2023-05-13T02:17:33.098Z,5.40
2023-05-13T02:17:54.195Z,5.30
2023-05-13T02:18:15.247Z,5.20
2023-05-13T02:18:36.350Z,5.20
2023-05-13T02:18:57.414Z,5.70
2023-05-13T02:19:18.475Z,5.60
2023-05-13T02:19:39.573Z,5.60
2023-05-13T02:20:00.708Z,5.70
2023-05-13T02:20:21.981Z,5.70
2023-05-13T02:20:43.217Z,5.90
2023-05-13T02:21:04.264Z,5.80
2023-05-13T02:21:25.329Z,5.70
2023-05-13T02:21:46.390Z,5.60
2023-05-13T02:22:07.449Z,5.70
2023-05-13T02:22:28.509Z,5.50
2023-05-13T02:22:49.576Z,5.80
2023-05-13T02:23:10.628Z,5.80
2023-05-13T02:23:31.686Z,6.00
2023-05-13T02:23:52.758Z,5.40
2023-05-13T02:24:13.797Z,5.30
2023-05-13T02:24:34.870Z,5.50
2023-05-13T02:24:56.134Z,5.40
2023-05-13T02:25:17.404Z,5.80
2023-05-13T02:25:38.466Z,5.50
2023-05-13T02:25:59.524Z,5.30
2023-05-13T02:26:20.600Z,5.70
2023-05-13T02:26:41.642Z,5.90
2023-05-13T02:27:02.702Z,5.80
2023-05-13T02:27:23.773Z,5.70
2023-05-13T02:27:44.821Z,5.70
2023-05-13T02:28:05.897Z,5.30
2023-05-13T02:28:26.936Z,5.40
2023-05-13T02:28:48.019Z,5.70
2023-05-13T02:29:09.071Z,5.30
2023-05-13T02:29:30.124Z,5.20
2023-05-13T02:29:51.185Z,5.40
2023-05-13T02:30:12.300Z,5.60
2023-05-13T02:30:33.406Z,5.50
2023-05-13T02:30:54.447Z,5.60
2023-05-13T02:31:15.529Z,5.80
2023-05-13T02:31:36.612Z,5.60
2023-05-13T02:31:57.688Z,5.80
2023-05-13T02:32:18.763Z,5.80
2023-05-13T02:32:39.956Z,5.60
2023-05-13T02:33:01.028Z,5.70
2023-05-13T02:33:22.053Z,5.50
2023-05-13T02:33:43.115Z,5.70
2023-05-13T02:34:04.169Z,5.50
2023-05-13T02:34:25.234Z,5.40
2023-05-13T02:34:46.304Z,5.80
2023-05-13T02:35:07.364Z,5.90
2023-05-13T02:35:28.464Z,5.70
2023-05-13T02:35:49.747Z,5.90
2023-05-13T02:36:10.788Z,6.10
2023-05-13T02:36:31.873Z,6.00
2023-05-13T02:36:52.901Z,6.00
2023-05-13T02:37:13.968Z,5.80
2023-05-13T02:37:35.022Z,5.80
2023-05-13T02:37:56.079Z,5.40
2023-05-13T02:38:17.155Z,6.00
2023-05-13T02:38:38.210Z,5.80
2023-05-13T02:38:59.271Z,6.10
2023-05-13T02:39:20.329Z,5.70
2023-05-13T02:39:41.393Z,5.60
2023-05-13T02:40:02.466Z,6.10
2023-05-13T02:40:23.636Z,6.20
2023-05-13T02:40:45.007Z,6.00
2023-05-13T02:41:06.098Z,5.90
2023-05-13T02:41:27.164Z,6.10
2023-05-13T02:41:48.208Z,6.30
2023-05-13T02:42:09.259Z,6.10
2023-05-13T02:42:30.309Z,5.80
2023-05-13T02:42:51.403Z,6.10
2023-05-13T02:43:12.441Z,5.80
2023-05-13T02:43:33.501Z,6.00
2023-05-13T02:43:54.560Z,5.80
2023-05-13T02:44:15.611Z,6.20
2023-05-13T02:44:36.672Z,6.00
2023-05-13T02:44:57.748Z,5.80
2023-05-13T02:45:18.820Z,5.80
2023-05-13T02:45:39.909Z,5.90
2023-05-13T02:46:01.214Z,5.70
2023-05-13T02:46:22.325Z,5.60
2023-05-13T02:46:43.418Z,6.10
2023-05-13T02:47:04.489Z,6.10
2023-05-13T02:47:25.598Z,6.20
2023-05-13T02:47:46.731Z,6.10
2023-05-13T02:48:07.852Z,5.70
2023-05-13T02:48:28.931Z,5.40
2023-05-13T02:48:49.977Z,5.70
2023-05-13T02:49:11.041Z,5.90
2023-05-13T02:49:32.087Z,5.80
2023-05-13T02:49:53.149Z,5.90
2023-05-13T02:50:14.238Z,5.80
2023-05-13T02:50:35.277Z,5.90
2023-05-13T02:50:56.333Z,6.40
2023-05-13T02:51:17.449Z,6.40
2023-05-13T02:51:38.696Z,6.30
2023-05-13T02:51:59.762Z,5.90
2023-05-13T02:52:20.814Z,6.20
2023-05-13T02:52:41.872Z,6.10
2023-05-13T02:53:02.952Z,6.30
2023-05-13T02:53:24.004Z,6.30
2023-05-13T02:53:45.059Z,6.20
2023-05-13T02:54:06.127Z,6.30
2023-05-13T02:54:27.185Z,6.20
2023-05-13T02:54:48.262Z,6.40
2023-05-13T02:55:09.342Z,6.30
2023-05-13T02:55:30.435Z,5.70
2023-05-13T02:55:51.480Z,5.60
2023-05-13T02:56:12.561Z,5.90
2023-05-13T02:56:33.649Z,6.50
2023-05-13T02:56:54.941Z,6.00
2023-05-13T02:57:15.982Z,6.30
2023-05-13T02:57:37.038Z,6.60
2023-05-13T02:57:58.163Z,6.20
2023-05-13T02:58:19.226Z,6.50
2023-05-13T02:58:40.291Z,6.00
2023-05-13T02:59:01.367Z,6.30
2023-05-13T02:59:22.422Z,6.40
2023-05-13T02:59:43.476Z,6.60
2023-05-13T03:00:04.550Z,6.30
2023-05-13T03:00:25.593Z,6.40
2023-05-13T03:00:46.641Z,6.20
2023-05-13T03:01:07.722Z,5.90
2023-05-13T03:01:28.847Z,5.90
2023-05-13T03:01:50.072Z,5.70
2023-05-13T03:02:11.187Z,6.10
2023-05-13T03:02:32.338Z,5.90
2023-05-13T03:02:53.466Z,6.00
2023-05-13T03:03:14.611Z,6.10
2023-05-13T03:03:35.853Z,5.90
2023-05-13T03:03:56.966Z,5.80
2023-05-13T03:04:18.024Z,5.80
2023-05-13T03:04:39.080Z,6.00
2023-05-13T03:05:00.179Z,6.00
2023-05-13T03:05:21.215Z,6.40
2023-05-13T03:05:42.266Z,6.30
2023-05-13T03:06:03.314Z,6.10
2023-05-13T03:06:24.436Z,6.30
2023-05-13T03:06:45.475Z,6.40
2023-05-13T03:07:06.781Z,6.10
2023-05-13T03:07:27.863Z,6.30
2023-05-13T03:07:48.925Z,6.20
2023-05-13T03:08:09.986Z,6.20
2023-05-13T03:08:31.049Z,6.20
2023-05-13T03:08:52.098Z,6.40
2023-05-13T03:09:13.161Z,6.20
2023-05-13T03:09:34.231Z,6.30
2023-05-13T03:09:55.287Z,6.60
2023-05-13T03:10:16.348Z,6.50
2023-05-13T03:10:37.407Z,6.10
2023-05-13T03:10:58.477Z,6.30
2023-05-13T03:11:19.532Z,6.10
2023-05-13T03:11:40.580Z,6.10
2023-05-13T03:12:01.653Z,6.10
2023-05-13T03:12:22.743Z,6.50
2023-05-13T03:12:43.832Z,6.50
2023-05-13T03:13:04.945Z,6.60
2023-05-13T03:13:25.979Z,6.60
2023-05-13T03:13:47.028Z,6.20
2023-05-13T03:14:08.085Z,6.40
2023-05-13T03:14:29.171Z,6.60
2023-05-13T03:14:50.211Z,6.40
2023-05-13T03:15:11.290Z,6.50
2023-05-13T03:15:32.329Z,6.50
2023-05-13T03:15:53.410Z,6.40
2023-05-13T03:16:14.490Z,6.40
2023-05-13T03:16:35.650Z,6.30
2023-05-13T03:16:56.717Z,6.40
2023-05-13T03:17:17.775Z,6.30
2023-05-13T03:17:39.097Z,6.30
2023-05-13T03:18:00.190Z,6.40
2023-05-13T03:18:21.298Z,6.70
2023-05-13T03:18:42.452Z,6.40
2023-05-13T03:19:03.583Z,6.80
2023-05-13T03:19:24.685Z,6.50
2023-05-13T03:19:45.728Z,6.50
2023-05-13T03:20:06.779Z,7.00
2023-05-13T03:20:27.845Z,6.90
2023-05-13T03:20:48.910Z,6.80
2023-05-13T03:21:09.959Z,6.50
2023-05-13T03:21:31.024Z,6.60
2023-05-13T03:21:52.091Z,6.30
2023-05-13T03:22:13.171Z,6.60
2023-05-13T03:22:34.232Z,6.00
2023-05-13T03:22:55.477Z,6.00
2023-05-13T03:23:37.746Z,6.20
2023-05-13T03:23:58.814Z,6.30
2023-05-13T03:24:19.873Z,6.40
2023-05-13T03:24:40.929Z,6.50
2023-05-13T03:25:01.987Z,6.30
2023-05-13T03:25:23.048Z,5.80
2023-05-13T03:25:44.110Z,5.90
2023-05-13T03:26:05.166Z,6.40
2023-05-13T03:26:26.219Z,6.70
2023-05-13T03:26:47.291Z,6.40
2023-05-13T03:27:08.338Z,6.40
2023-05-13T03:27:29.384Z,6.30
2023-05-13T03:27:50.480Z,6.30
2023-05-13T03:28:11.744Z,6.70
2023-05-13T03:28:32.831Z,6.50
2023-05-13T03:28:53.894Z,6.20
2023-05-13T03:29:14.975Z,6.60
2023-05-13T03:29:36.038Z,6.40
2023-05-13T03:29:57.089Z,6.20
2023-05-13T03:30:18.180Z,6.50
2023-05-13T03:30:39.238Z,6.60
2023-05-13T03:31:00.379Z,6.60
2023-05-13T03:31:21.473Z,6.30
2023-05-13T03:31:42.584Z,6.10
2023-05-13T03:32:03.672Z,6.40
2023-05-13T03:32:24.751Z,6.50
2023-05-13T03:32:45.816Z,6.90
2023-05-13T03:33:06.878Z,6.70
2023-05-13T03:33:28.998Z,6.40
2023-05-13T03:33:50.269Z,6.50
2023-05-13T03:34:11.322Z,6.60
2023-05-13T03:34:32.391Z,6.70
2023-05-13T03:34:53.455Z,6.70
2023-05-13T03:35:14.502Z,6.70
2023-05-13T03:35:35.564Z,6.40
2023-05-13T03:35:56.630Z,6.10
2023-05-13T03:36:17.687Z,6.30
2023-05-13T03:36:38.737Z,6.00
2023-05-13T03:36:59.843Z,6.10
2023-05-13T03:37:20.896Z,6.60
2023-05-13T03:37:41.958Z,6.20
2023-05-13T03:38:03.052Z,6.50
2023-05-13T03:38:24.090Z,6.40
2023-05-13T03:38:45.257Z,6.60
2023-05-13T03:39:06.486Z,6.50
2023-05-13T03:39:27.543Z,6.70
2023-05-13T03:39:48.633Z,7.00
2023-05-13T03:40:09.687Z,6.50
2023-05-13T03:40:30.723Z,6.40
2023-05-13T03:40:51.785Z,6.30
2023-05-13T03:41:12.878Z,6.30
2023-05-13T03:41:33.921Z,7.00
2023-05-13T03:41:54.994Z,6.20
2023-05-13T03:42:16.057Z,6.70
2023-05-13T03:42:37.103Z,6.60
2023-05-13T03:42:58.162Z,6.50
2023-05-13T03:43:19.226Z,6.30
2023-05-13T03:43:40.283Z,6.50
2023-05-13T03:44:01.594Z,6.50
2023-05-13T03:44:22.706Z,6.60
2023-05-13T03:44:43.750Z,6.40
2023-05-13T03:45:04.808Z,6.20
2023-05-13T03:45:25.861Z,6.10
2023-05-13T03:45:46.927Z,6.60
2023-05-13T03:46:07.985Z,6.50
2023-05-13T03:46:29.056Z,6.60
2023-05-13T03:46:50.117Z,6.90
2023-05-13T03:47:11.303Z,6.60
2023-05-13T03:47:32.352Z,6.60
2023-05-13T03:47:53.436Z,6.60
2023-05-13T03:48:14.461Z,6.70
2023-05-13T03:48:35.524Z,6.50
2023-05-13T03:48:56.598Z,6.30
2023-05-13T03:49:17.873Z,6.20
2023-05-13T03:49:39.148Z,6.50
2023-05-13T03:50:00.238Z,6.40
2023-05-13T03:50:21.432Z,6.30
2023-05-13T03:50:42.566Z,6.80
2023-05-13T03:51:03.617Z,6.40
2023-05-13T03:51:24.669Z,6.50
2023-05-13T03:51:45.734Z,6.10
2023-05-13T03:52:06.793Z,6.20
2023-05-13T03:52:27.875Z,6.30
2023-05-13T03:52:48.953Z,6.30
2023-05-13T03:53:10.001Z,6.30
2023-05-13T03:53:31.057Z,6.20
2023-05-13T03:53:52.125Z,6.40
2023-05-13T03:54:13.167Z,6.50
2023-05-13T03:54:34.263Z,6.40
2023-05-13T03:54:55.350Z,6.50
2023-05-13T03:55:16.414Z,6.40
2023-05-13T03:55:37.470Z,6.30
2023-05-13T03:55:58.533Z,6.00
2023-05-13T03:56:19.602Z,6.20
2023-05-13T03:56:40.663Z,6.30
2023-05-13T03:57:01.718Z,6.60
2023-05-13T03:57:22.777Z,6.40
2023-05-13T03:57:43.831Z,6.60
2023-05-13T03:58:04.889Z,6.30
2023-05-13T03:58:25.964Z,6.50
2023-05-13T03:58:47.020Z,5.90
2023-05-13T03:59:08.082Z,6.30
2023-05-13T03:59:29.143Z,6.70
2023-05-13T03:59:50.415Z,6.70
2023-05-13T04:00:11.526Z,6.50
2023-05-13T04:00:32.581Z,6.40
2023-05-13T04:00:53.643Z,6.30
2023-05-13T04:01:14.685Z,6.30
2023-05-13T04:01:35.754Z,6.30
2023-05-13T04:01:56.864Z,6.30
2023-05-13T04:02:17.940Z,6.40
2023-05-13T04:02:39.049Z,6.60
2023-05-13T04:03:00.164Z,6.50
2023-05-13T04:03:21.239Z,6.90
2023-05-13T04:03:42.297Z,6.40
2023-05-13T04:04:03.351Z,6.50
2023-05-13T04:04:24.469Z,6.80
2023-05-13T04:04:45.589Z,6.30
2023-05-13T04:05:06.772Z,6.40
2023-05-13T04:05:28.044Z,6.30
2023-05-13T04:05:49.123Z,6.10
2023-05-13T04:06:10.192Z,6.50
2023-05-13T04:06:31.215Z,6.40
2023-05-13T04:06:52.271Z,6.10
2023-05-13T04:07:13.332Z,6.40
2023-05-13T04:07:34.388Z,6.20
2023-05-13T04:07:55.448Z,6.20
2023-05-13T04:08:16.515Z,6.50
2023-05-13T04:08:37.580Z,6.50
2023-05-13T04:08:58.628Z,6.30
2023-05-13T04:09:19.682Z,6.20
2023-05-13T04:09:40.750Z,6.40
2023-05-13T04:10:01.802Z,6.30
2023-05-13T04:10:23.119Z,6.20
2023-05-13T04:10:44.286Z,6.00
2023-05-13T04:11:05.362Z,6.20
2023-05-13T04:11:26.426Z,6.80
2023-05-13T04:11:47.493Z,6.40
2023-05-13T04:12:08.539Z,6.20
2023-05-13T04:12:29.591Z,6.30
2023-05-13T04:12:50.658Z,6.00
2023-05-13T04:13:11.717Z,6.20
2023-05-13T04:13:32.787Z,6.00
2023-05-13T04:13:53.846Z,6.10
2023-05-13T04:14:14.901Z,6.50
2023-05-13T04:14:35.947Z,6.70
2023-05-13T04:14:57.009Z,6.10
2023-05-13T04:15:18.069Z,6.40
2023-05-13T04:15:39.171Z,6.30
2023-05-13T04:16:00.438Z,6.60
2023-05-13T04:16:21.534Z,6.30
2023-05-13T04:16:42.667Z,6.30
2023-05-13T04:17:03.760Z,6.30
2023-05-13T04:17:24.833Z,6.20
2023-05-13T04:17:45.917Z,6.30
2023-05-13T04:18:07.023Z,6.20
2023-05-13T04:18:28.112Z,6.50
2023-05-13T04:18:49.148Z,6.40
2023-05-13T04:19:10.265Z,6.20
2023-05-13T04:19:31.340Z,6.10
2023-05-13T04:19:52.382Z,5.90
2023-05-13T04:20:13.442Z,6.30
2023-05-13T04:20:34.498Z,6.40
2023-05-13T04:20:55.614Z,6.30
2023-05-13T04:21:16.741Z,6.50
2023-05-13T04:21:37.782Z,6.60
2023-05-13T04:21:58.834Z,6.00
2023-05-13T04:22:19.897Z,5.90
2023-05-13T04:22:40.964Z,6.60
2023-05-13T04:23:02.020Z,6.60
2023-05-13T04:23:23.080Z,6.50
2023-05-13T04:23:44.145Z,6.00
2023-05-13T04:24:05.191Z,5.90
2023-05-13T04:24:26.241Z,5.70
2023-05-13T04:24:47.293Z,6.10
2023-05-13T04:25:08.356Z,6.00
2023-05-13T04:25:29.482Z,6.30
2023-05-13T04:25:50.540Z,6.10
2023-05-13T04:26:11.616Z,6.50
2023-05-13T04:26:32.707Z,6.60
2023-05-13T04:26:53.764Z,6.80
2023-05-13T04:27:14.824Z,6.70
2023-05-13T04:27:35.886Z,6.60
2023-05-13T04:27:56.951Z,6.20
2023-05-13T04:28:18.000Z,6.00
2023-05-13T04:28:39.055Z,6.00
2023-05-13T04:29:00.231Z,6.60
2023-05-13T04:29:21.309Z,6.50
2023-05-13T04:29:42.375Z,6.00
2023-05-13T04:30:03.440Z,6.30
2023-05-13T04:30:24.492Z,6.90
2023-05-13T04:30:45.570Z,6.30
2023-05-13T04:31:06.623Z,6.20
2023-05-13T04:31:27.760Z,6.30
2023-05-13T04:31:48.962Z,6.50
2023-05-13T04:32:10.158Z,6.20
2023-05-13T04:32:31.303Z,6.70
2023-05-13T04:32:52.389Z,6.40
2023-05-13T04:33:13.469Z,6.40
2023-05-13T04:33:34.534Z,6.30
2023-05-13T04:33:55.598Z,6.30
2023-05-13T04:34:16.663Z,6.20
2023-05-13T04:34:37.722Z,6.40
2023-05-13T04:34:58.784Z,6.30
2023-05-13T04:35:19.834Z,5.80
2023-05-13T04:35:40.886Z,6.10
2023-05-13T04:36:01.958Z,6.20
2023-05-13T04:36:23.005Z,6.10
2023-05-13T04:36:44.103Z,5.90
2023-05-13T04:37:05.203Z,6.40
2023-05-13T04:37:26.259Z,6.10
2023-05-13T04:37:47.334Z,5.90
2023-05-13T04:38:08.381Z,6.30
2023-05-13T04:38:29.452Z,6.50
2023-05-13T04:38:50.495Z,6.10
2023-05-13T04:39:11.554Z,6.20
2023-05-13T04:39:32.610Z,6.30
2023-05-13T04:39:53.678Z,6.40
2023-05-13T04:40:14.741Z,6.50
2023-05-13T04:40:35.795Z,6.10
2023-05-13T04:40:56.874Z,6.20
2023-05-13T04:41:17.901Z,5.90